sensor_id;sensor_type;location;lat;lon;timestamp;temperature;humidity
38514;DHT22;24282;48.400;10.808;2022-09-03T00:02:27;16.20;66.40
38514;DHT22;24282;48.400;10.808;2022-09-03T00:05:07;16.20;66.50
38514;DHT22;24282;48.400;10.808;2022-09-03T00:10:20;16.20;66.40
38514;DHT22;24282;48.400;10.808;2022-09-03T00:12:48;16.20;66.50
38514;DHT22;24282;48.400;10.808;2022-09-03T00:15:22;16.20;66.70
38514;DHT22;24282;48.400;10.808;2022-09-03T00:17:53;16.10;66.50
38514;DHT22;24282;48.400;10.808;2022-09-03T00:20:55;16.10;66.50
38514;DHT22;24282;48.400;10.808;2022-09-03T00:23:26;16.10;66.60
38514;DHT22;24282;48.400;10.808;2022-09-03T00:31:34;16.10;66.70
38514;DHT22;24282;48.400;10.808;2022-09-03T00:34:23;16.10;66.70
38514;DHT22;24282;48.400;10.808;2022-09-03T00:36:49;16.10;66.60
38514;DHT22;24282;48.400;10.808;2022-09-03T00:39:17;16.10;66.80
38514;DHT22;24282;48.400;10.808;2022-09-03T00:42:55;16.10;67.10
38514;DHT22;24282;48.400;10.808;2022-09-03T01:03:06;16.00;67.20
38514;DHT22;24282;48.400;10.808;2022-09-03T01:10:55;15.90;67.30
38514;DHT22;24282;48.400;10.808;2022-09-03T01:13:29;15.90;67.70
38514;DHT22;24282;48.400;10.808;2022-09-03T01:16:08;15.90;67.40
38514;DHT22;24282;48.400;10.808;2022-09-03T01:21:24;15.80;67.30
38514;DHT22;24282;48.400;10.808;2022-09-03T01:24:23;15.70;67.40
38514;DHT22;24282;48.400;10.808;2022-09-03T01:32:42;15.60;68.00
38514;DHT22;24282;48.400;10.808;2022-09-03T01:44:44;15.40;68.60
38514;DHT22;24282;48.400;10.808;2022-09-03T01:47:03;15.40;68.60
38514;DHT22;24282;48.400;10.808;2022-09-03T01:50:02;15.40;68.60
38514;DHT22;24282;48.400;10.808;2022-09-03T01:58:04;15.40;69.40
38514;DHT22;24282;48.400;10.808;2022-09-03T02:00:33;15.40;69.20
38514;DHT22;24282;48.400;10.808;2022-09-03T02:03:03;15.30;69.20
38514;DHT22;24282;48.400;10.808;2022-09-03T02:05:30;15.30;69.40
38514;DHT22;24282;48.400;10.808;2022-09-03T02:08:07;15.20;69.40
38514;DHT22;24282;48.400;10.808;2022-09-03T02:10:54;15.20;69.80
38514;DHT22;24282;48.400;10.808;2022-09-03T02:15:58;15.20;70.10
38514;DHT22;24282;48.400;10.808;2022-09-03T02:18:36;15.20;70.20
38514;DHT22;24282;48.400;10.808;2022-09-03T02:21:04;15.20;70.40
38514;DHT22;24282;48.400;10.808;2022-09-03T02:23:30;15.10;70.30
38514;DHT22;24282;48.400;10.808;2022-09-03T02:26:00;15.10;70.30
38514;DHT22;24282;48.400;10.808;2022-09-03T02:28:30;15.00;70.40
38514;DHT22;24282;48.400;10.808;2022-09-03T02:30:57;15.00;70.50
38514;DHT22;24282;48.400;10.808;2022-09-03T02:33:23;15.00;70.50
38514;DHT22;24282;48.400;10.808;2022-09-03T02:35:50;15.00;70.50
38514;DHT22;24282;48.400;10.808;2022-09-03T02:38:24;15.00;70.50
38514;DHT22;24282;48.400;10.808;2022-09-03T02:40:51;15.00;70.60
38514;DHT22;24282;48.400;10.808;2022-09-03T02:43:30;14.90;70.80
38514;DHT22;24282;48.400;10.808;2022-09-03T02:46:01;14.90;71.00
38514;DHT22;24282;48.400;10.808;2022-09-03T02:48:30;14.90;70.80
38514;DHT22;24282;48.400;10.808;2022-09-03T02:50:57;14.90;70.70
38514;DHT22;24282;48.400;10.808;2022-09-03T02:53:23;14.90;70.70
38514;DHT22;24282;48.400;10.808;2022-09-03T02:55:49;14.90;70.90
38514;DHT22;24282;48.400;10.808;2022-09-03T02:58:15;14.90;70.90
38514;DHT22;24282;48.400;10.808;2022-09-03T03:00:41;14.80;71.00
38514;DHT22;24282;48.400;10.808;2022-09-03T03:03:06;14.80;71.20
38514;DHT22;24282;48.400;10.808;2022-09-03T03:05:52;14.80;71.50
38514;DHT22;24282;48.400;10.808;2022-09-03T03:08:21;14.70;71.70
38514;DHT22;24282;48.400;10.808;2022-09-03T03:10:48;14.70;71.70
38514;DHT22;24282;48.400;10.808;2022-09-03T03:13:16;14.70;71.80
38514;DHT22;24282;48.400;10.808;2022-09-03T03:15:42;14.60;72.00
38514;DHT22;24282;48.400;10.808;2022-09-03T03:18:09;14.60;72.10
38514;DHT22;24282;48.400;10.808;2022-09-03T03:20:37;14.60;72.20
38514;DHT22;24282;48.400;10.808;2022-09-03T03:23:04;14.50;72.20
38514;DHT22;24282;48.400;10.808;2022-09-03T03:25:37;14.50;72.50
38514;DHT22;24282;48.400;10.808;2022-09-03T03:28:03;14.50;72.60
38514;DHT22;24282;48.400;10.808;2022-09-03T03:30:30;14.40;72.70
38514;DHT22;24282;48.400;10.808;2022-09-03T03:32:56;14.40;72.70
38514;DHT22;24282;48.400;10.808;2022-09-03T03:35:22;14.40;73.00
38514;DHT22;24282;48.400;10.808;2022-09-03T03:37:48;14.40;72.90
38514;DHT22;24282;48.400;10.808;2022-09-03T03:40:14;14.40;73.00
38514;DHT22;24282;48.400;10.808;2022-09-03T03:42:41;14.40;73.10
38514;DHT22;24282;48.400;10.808;2022-09-03T03:45:07;14.40;73.40
38514;DHT22;24282;48.400;10.808;2022-09-03T03:47:35;14.40;73.60
38514;DHT22;24282;48.400;10.808;2022-09-03T03:50:01;14.40;73.80
38514;DHT22;24282;48.400;10.808;2022-09-03T03:52:27;14.40;74.00
38514;DHT22;24282;48.400;10.808;2022-09-03T03:54:53;14.40;74.00
38514;DHT22;24282;48.400;10.808;2022-09-03T03:57:20;14.40;74.00
38514;DHT22;24282;48.400;10.808;2022-09-03T03:59:46;14.40;73.80
38514;DHT22;24282;48.400;10.808;2022-09-03T04:02:12;14.40;73.80
38514;DHT22;24282;48.400;10.808;2022-09-03T04:04:39;14.40;74.30
38514;DHT22;24282;48.400;10.808;2022-09-03T04:07:05;14.40;74.50
38514;DHT22;24282;48.400;10.808;2022-09-03T04:09:31;14.40;74.40
38514;DHT22;24282;48.400;10.808;2022-09-03T04:11:56;14.40;74.40
38514;DHT22;24282;48.400;10.808;2022-09-03T04:14:23;14.40;74.20
38514;DHT22;24282;48.400;10.808;2022-09-03T04:16:49;14.40;74.40
38514;DHT22;24282;48.400;10.808;2022-09-03T04:19:16;14.40;74.50
38514;DHT22;24282;48.400;10.808;2022-09-03T04:21:42;14.40;74.60
38514;DHT22;24282;48.400;10.808;2022-09-03T04:24:08;14.40;74.80
38514;DHT22;24282;48.400;10.808;2022-09-03T04:26:34;14.40;75.30
38514;DHT22;24282;48.400;10.808;2022-09-03T04:29:08;14.40;75.00
38514;DHT22;24282;48.400;10.808;2022-09-03T04:31:35;14.40;75.20
38514;DHT22;24282;48.400;10.808;2022-09-03T04:34:01;14.40;76.00
38514;DHT22;24282;48.400;10.808;2022-09-03T04:36:29;14.40;76.40
38514;DHT22;24282;48.400;10.808;2022-09-03T04:38:58;14.40;76.80
38514;DHT22;24282;48.400;10.808;2022-09-03T04:41:25;14.40;77.00
38514;DHT22;24282;48.400;10.808;2022-09-03T04:43:53;14.40;77.10
38514;DHT22;24282;48.400;10.808;2022-09-03T04:46:20;14.40;77.20
38514;DHT22;24282;48.400;10.808;2022-09-03T04:48:48;14.40;77.10
38514;DHT22;24282;48.400;10.808;2022-09-03T04:51:18;14.40;76.90
38514;DHT22;24282;48.400;10.808;2022-09-03T04:53:45;14.40;76.70
38514;DHT22;24282;48.400;10.808;2022-09-03T04:58:38;14.40;76.50
38514;DHT22;24282;48.400;10.808;2022-09-03T05:01:12;14.30;76.80
38514;DHT22;24282;48.400;10.808;2022-09-03T05:03:38;14.40;77.00
38514;DHT22;24282;48.400;10.808;2022-09-03T05:06:04;14.40;76.70
38514;DHT22;24282;48.400;10.808;2022-09-03T05:08:31;14.30;76.60
38514;DHT22;24282;48.400;10.808;2022-09-03T05:10:59;14.40;76.80
38514;DHT22;24282;48.400;10.808;2022-09-03T05:13:25;14.40;76.90
38514;DHT22;24282;48.400;10.808;2022-09-03T05:15:51;14.30;77.10
38514;DHT22;24282;48.400;10.808;2022-09-03T05:18:17;14.40;77.30
38514;DHT22;24282;48.400;10.808;2022-09-03T05:20:43;14.40;77.20
38514;DHT22;24282;48.400;10.808;2022-09-03T05:23:09;14.40;77.30
38514;DHT22;24282;48.400;10.808;2022-09-03T05:25:34;14.50;77.20
38514;DHT22;24282;48.400;10.808;2022-09-03T05:28:02;14.50;77.50
38514;DHT22;24282;48.400;10.808;2022-09-03T05:30:28;14.40;77.70
38514;DHT22;24282;48.400;10.808;2022-09-03T05:32:55;14.50;77.30
38514;DHT22;24282;48.400;10.808;2022-09-03T05:35:21;14.60;77.10
38514;DHT22;24282;48.400;10.808;2022-09-03T05:37:47;14.60;76.60
38514;DHT22;24282;48.400;10.808;2022-09-03T05:40:13;14.70;76.00
38514;DHT22;24282;48.400;10.808;2022-09-03T05:42:39;14.70;74.60
38514;DHT22;24282;48.400;10.808;2022-09-03T05:45:09;14.70;75.00
38514;DHT22;24282;48.400;10.808;2022-09-03T05:47:39;14.80;74.70
38514;DHT22;24282;48.400;10.808;2022-09-03T05:50:06;14.90;74.60
38514;DHT22;24282;48.400;10.808;2022-09-03T05:52:33;14.90;74.80
38514;DHT22;24282;48.400;10.808;2022-09-03T05:55:00;14.90;75.60
38514;DHT22;24282;48.400;10.808;2022-09-03T05:57:26;14.80;77.40
38514;DHT22;24282;48.400;10.808;2022-09-03T05:59:51;14.80;79.00
38514;DHT22;24282;48.400;10.808;2022-09-03T06:02:17;14.70;79.40
38514;DHT22;24282;48.400;10.808;2022-09-03T06:04:43;14.70;79.90
38514;DHT22;24282;48.400;10.808;2022-09-03T06:07:09;14.60;80.80
38514;DHT22;24282;48.400;10.808;2022-09-03T06:09:35;14.50;80.50
38514;DHT22;24282;48.400;10.808;2022-09-03T06:12:01;14.40;81.10
38514;DHT22;24282;48.400;10.808;2022-09-03T06:14:27;14.40;82.00
38514;DHT22;24282;48.400;10.808;2022-09-03T06:16:52;14.40;82.40
38514;DHT22;24282;48.400;10.808;2022-09-03T06:19:20;14.40;82.70
38514;DHT22;24282;48.400;10.808;2022-09-03T06:21:46;14.40;83.00
38514;DHT22;24282;48.400;10.808;2022-09-03T06:24:20;14.40;83.30
38514;DHT22;24282;48.400;10.808;2022-09-03T06:26:49;14.40;83.30
38514;DHT22;24282;48.400;10.808;2022-09-03T06:29:16;14.40;83.50
38514;DHT22;24282;48.400;10.808;2022-09-03T06:31:45;14.40;83.70
38514;DHT22;24282;48.400;10.808;2022-09-03T06:34:13;14.40;83.90
38514;DHT22;24282;48.400;10.808;2022-09-03T06:36:38;14.40;83.90
38514;DHT22;24282;48.400;10.808;2022-09-03T06:39:05;14.30;84.20
38514;DHT22;24282;48.400;10.808;2022-09-03T06:41:32;14.30;84.40
38514;DHT22;24282;48.400;10.808;2022-09-03T06:44:04;14.40;84.40
38514;DHT22;24282;48.400;10.808;2022-09-03T06:46:34;14.40;84.10
38514;DHT22;24282;48.400;10.808;2022-09-03T06:49:03;14.40;84.00
38514;DHT22;24282;48.400;10.808;2022-09-03T06:51:30;14.30;84.00
38514;DHT22;24282;48.400;10.808;2022-09-03T06:54:15;14.40;84.30
38514;DHT22;24282;48.400;10.808;2022-09-03T06:56:41;14.40;84.80
38514;DHT22;24282;48.400;10.808;2022-09-03T06:59:11;14.40;85.10
38514;DHT22;24282;48.400;10.808;2022-09-03T07:01:39;14.40;85.00
38514;DHT22;24282;48.400;10.808;2022-09-03T07:04:06;14.50;85.00
38514;DHT22;24282;48.400;10.808;2022-09-03T07:06:34;14.50;85.00
38514;DHT22;24282;48.400;10.808;2022-09-03T07:09:05;14.60;85.10
38514;DHT22;24282;48.400;10.808;2022-09-03T07:11:31;14.70;84.90
38514;DHT22;24282;48.400;10.808;2022-09-03T07:13:59;14.80;85.40
38514;DHT22;24282;48.400;10.808;2022-09-03T07:16:35;14.90;85.80
38514;DHT22;24282;48.400;10.808;2022-09-03T07:19:02;14.90;85.70
38514;DHT22;24282;48.400;10.808;2022-09-03T07:21:30;14.90;85.50
38514;DHT22;24282;48.400;10.808;2022-09-03T07:23:58;15.00;85.30
38514;DHT22;24282;48.400;10.808;2022-09-03T07:26:38;15.00;85.80
38514;DHT22;24282;48.400;10.808;2022-09-03T07:29:06;15.10;86.20
38514;DHT22;24282;48.400;10.808;2022-09-03T07:31:38;15.20;86.20
38514;DHT22;24282;48.400;10.808;2022-09-03T07:34:06;15.20;86.40
38514;DHT22;24282;48.400;10.808;2022-09-03T07:39:04;15.20;85.90
38514;DHT22;24282;48.400;10.808;2022-09-03T07:41:29;15.30;86.10
38514;DHT22;24282;48.400;10.808;2022-09-03T07:43:58;15.30;86.00
38514;DHT22;24282;48.400;10.808;2022-09-03T07:46:25;15.30;85.40
38514;DHT22;24282;48.400;10.808;2022-09-03T07:48:56;15.40;85.20
38514;DHT22;24282;48.400;10.808;2022-09-03T07:51:27;15.40;85.10
38514;DHT22;24282;48.400;10.808;2022-09-03T07:53:59;15.50;85.70
38514;DHT22;24282;48.400;10.808;2022-09-03T07:56:27;15.60;86.10
38514;DHT22;24282;48.400;10.808;2022-09-03T07:58:56;15.80;86.40
38514;DHT22;24282;48.400;10.808;2022-09-03T08:01:23;15.80;86.60
38514;DHT22;24282;48.400;10.808;2022-09-03T08:03:51;15.90;86.60
38514;DHT22;24282;48.400;10.808;2022-09-03T08:06:20;15.90;86.40
38514;DHT22;24282;48.400;10.808;2022-09-03T08:08:46;15.90;86.60
38514;DHT22;24282;48.400;10.808;2022-09-03T08:11:15;16.00;86.70
38514;DHT22;24282;48.400;10.808;2022-09-03T08:13:45;16.00;86.70
38514;DHT22;24282;48.400;10.808;2022-09-03T08:16:15;16.10;86.80
38514;DHT22;24282;48.400;10.808;2022-09-03T08:18:41;16.20;86.80
38514;DHT22;24282;48.400;10.808;2022-09-03T08:21:15;16.30;86.80
38514;DHT22;24282;48.400;10.808;2022-09-03T08:23:49;16.40;86.90
38514;DHT22;24282;48.400;10.808;2022-09-03T08:26:16;16.40;86.60
38514;DHT22;24282;48.400;10.808;2022-09-03T08:28:43;16.50;86.40
38514;DHT22;24282;48.400;10.808;2022-09-03T08:31:13;16.50;86.50
38514;DHT22;24282;48.400;10.808;2022-09-03T08:33:41;16.60;86.60
38514;DHT22;24282;48.400;10.808;2022-09-03T08:36:09;16.70;86.70
38514;DHT22;24282;48.400;10.808;2022-09-03T08:38:38;16.70;86.60
38514;DHT22;24282;48.400;10.808;2022-09-03T08:41:12;16.80;86.70
38514;DHT22;24282;48.400;10.808;2022-09-03T08:44:08;16.80;86.80
38514;DHT22;24282;48.400;10.808;2022-09-03T08:52:31;17.10;86.30
38514;DHT22;24282;48.400;10.808;2022-09-03T08:55:36;17.20;85.90
38514;DHT22;24282;48.400;10.808;2022-09-03T08:58:13;17.30;86.30
38514;DHT22;24282;48.400;10.808;2022-09-03T09:22:49;18.10;86.50
38514;DHT22;24282;48.400;10.808;2022-09-03T09:25:21;18.20;85.90
38514;DHT22;24282;48.400;10.808;2022-09-03T09:30:30;18.40;85.60
38514;DHT22;24282;48.400;10.808;2022-09-03T09:32:57;18.50;84.90
38514;DHT22;24282;48.400;10.808;2022-09-03T09:35:25;18.50;84.30
38514;DHT22;24282;48.400;10.808;2022-09-03T09:37:53;18.50;84.20
38514;DHT22;24282;48.400;10.808;2022-09-03T09:40:34;18.50;84.80
38514;DHT22;24282;48.400;10.808;2022-09-03T09:43:14;18.40;85.10
38514;DHT22;24282;48.400;10.808;2022-09-03T09:45:43;18.40;84.80
38514;DHT22;24282;48.400;10.808;2022-09-03T09:48:35;18.40;83.40
38514;DHT22;24282;48.400;10.808;2022-09-03T09:51:26;18.40;83.50
38514;DHT22;24282;48.400;10.808;2022-09-03T09:54:16;18.40;84.80
38514;DHT22;24282;48.400;10.808;2022-09-03T09:56:43;18.30;84.60
38514;DHT22;24282;48.400;10.808;2022-09-03T09:59:11;18.30;85.00
38514;DHT22;24282;48.400;10.808;2022-09-03T10:01:39;18.40;85.30
38514;DHT22;24282;48.400;10.808;2022-09-03T10:04:11;18.40;85.20
38514;DHT22;24282;48.400;10.808;2022-09-03T10:06:38;18.40;85.00
38514;DHT22;24282;48.400;10.808;2022-09-03T10:09:27;18.40;85.00
38514;DHT22;24282;48.400;10.808;2022-09-03T10:17:51;18.50;84.00
38514;DHT22;24282;48.400;10.808;2022-09-03T10:26:08;18.40;83.50
38514;DHT22;24282;48.400;10.808;2022-09-03T10:28:37;18.30;83.70
38514;DHT22;24282;48.400;10.808;2022-09-03T10:32:01;18.30;84.30
38514;DHT22;24282;48.400;10.808;2022-09-03T10:40:10;18.30;85.10
38514;DHT22;24282;48.400;10.808;2022-09-03T10:42:51;18.30;84.90
38514;DHT22;24282;48.400;10.808;2022-09-03T10:45:38;18.40;85.30
38514;DHT22;24282;48.400;10.808;2022-09-03T10:53:57;18.90;84.80
38514;DHT22;24282;48.400;10.808;2022-09-03T10:56:53;18.90;83.70
38514;DHT22;24282;48.400;10.808;2022-09-03T10:59:44;19.10;83.20
38514;DHT22;24282;48.400;10.808;2022-09-03T11:05:05;19.30;81.30
38514;DHT22;24282;48.400;10.808;2022-09-03T11:07:40;19.40;80.80
38514;DHT22;24282;48.400;10.808;2022-09-03T11:10:30;19.50;79.80
38514;DHT22;24282;48.400;10.808;2022-09-03T11:13:19;19.60;80.20
38514;DHT22;24282;48.400;10.808;2022-09-03T11:15:53;19.60;80.40
38514;DHT22;24282;48.400;10.808;2022-09-03T11:18:34;19.60;80.40
38514;DHT22;24282;48.400;10.808;2022-09-03T11:21:04;19.60;80.50
38514;DHT22;24282;48.400;10.808;2022-09-03T11:23:39;19.60;79.70
38514;DHT22;24282;48.400;10.808;2022-09-03T11:26:11;19.60;79.60
38514;DHT22;24282;48.400;10.808;2022-09-03T11:31:38;19.90;80.80
38514;DHT22;24282;48.400;10.808;2022-09-03T11:34:14;20.20;79.20
38514;DHT22;24282;48.400;10.808;2022-09-03T11:36:41;20.40;77.30
38514;DHT22;24282;48.400;10.808;2022-09-03T11:39:24;20.70;76.40
38514;DHT22;24282;48.400;10.808;2022-09-03T11:42:02;20.80;77.00
38514;DHT22;24282;48.400;10.808;2022-09-03T11:44:50;20.90;77.80
38514;DHT22;24282;48.400;10.808;2022-09-03T11:49:47;21.20;74.70
38514;DHT22;24282;48.400;10.808;2022-09-03T11:52:29;21.30;74.00
38514;DHT22;24282;48.400;10.808;2022-09-03T11:54:56;21.40;74.70
38514;DHT22;24282;48.400;10.808;2022-09-03T11:57:29;21.40;72.90
38514;DHT22;24282;48.400;10.808;2022-09-03T12:00:13;21.60;73.30
38514;DHT22;24282;48.400;10.808;2022-09-03T12:02:48;21.70;73.80
38514;DHT22;24282;48.400;10.808;2022-09-03T12:10:52;22.00;71.50
38514;DHT22;24282;48.400;10.808;2022-09-03T12:19:31;22.40;65.10
38514;DHT22;24282;48.400;10.808;2022-09-03T12:21:54;22.40;65.70
38514;DHT22;24282;48.400;10.808;2022-09-03T12:24:20;22.60;65.40
38514;DHT22;24282;48.400;10.808;2022-09-03T12:26:47;22.60;65.40
38514;DHT22;24282;48.400;10.808;2022-09-03T12:29:25;22.70;66.60
38514;DHT22;24282;48.400;10.808;2022-09-03T12:31:51;22.80;66.30
38514;DHT22;24282;48.400;10.808;2022-09-03T12:34:19;22.90;65.30
38514;DHT22;24282;48.400;10.808;2022-09-03T12:36:47;22.80;66.00
38514;DHT22;24282;48.400;10.808;2022-09-03T12:39:25;22.70;66.60
38514;DHT22;24282;48.400;10.808;2022-09-03T12:44:39;22.40;66.70
38514;DHT22;24282;48.400;10.808;2022-09-03T12:49:40;22.10;66.30
38514;DHT22;24282;48.400;10.808;2022-09-03T13:00:08;21.30;67.80
38514;DHT22;24282;48.400;10.808;2022-09-03T13:08:07;21.00;68.60
38514;DHT22;24282;48.400;10.808;2022-09-03T13:10:38;20.90;68.70
38514;DHT22;24282;48.400;10.808;2022-09-03T13:32:48;19.90;76.80
38514;DHT22;24282;48.400;10.808;2022-09-03T13:38:04;19.40;78.70
38514;DHT22;24282;48.400;10.808;2022-09-03T13:40:52;19.40;79.40
38514;DHT22;24282;48.400;10.808;2022-09-03T13:46:11;19.30;81.70
38514;DHT22;24282;48.400;10.808;2022-09-03T13:48:43;19.30;82.10
38514;DHT22;24282;48.400;10.808;2022-09-03T13:51:50;19.30;81.00
38514;DHT22;24282;48.400;10.808;2022-09-03T13:54:22;19.20;80.40
38514;DHT22;24282;48.400;10.808;2022-09-03T13:57:00;19.10;80.60
38514;DHT22;24282;48.400;10.808;2022-09-03T14:02:06;19.00;81.00
38514;DHT22;24282;48.400;10.808;2022-09-03T14:04:50;19.00;81.70
38514;DHT22;24282;48.400;10.808;2022-09-03T14:10:18;19.00;83.60
38514;DHT22;24282;48.400;10.808;2022-09-03T14:15:47;19.00;82.70
38514;DHT22;24282;48.400;10.808;2022-09-03T14:21:17;19.00;83.40
38514;DHT22;24282;48.400;10.808;2022-09-03T14:23:58;19.00;84.00
38514;DHT22;24282;48.400;10.808;2022-09-03T14:26:31;18.90;84.10
38514;DHT22;24282;48.400;10.808;2022-09-03T14:29:14;18.90;83.50
38514;DHT22;24282;48.400;10.808;2022-09-03T14:34:45;18.90;84.50
38514;DHT22;24282;48.400;10.808;2022-09-03T14:42:51;18.90;83.90
38514;DHT22;24282;48.400;10.808;2022-09-03T14:54:11;19.70;82.50
38514;DHT22;24282;48.400;10.808;2022-09-03T14:59:35;20.00;80.90
38514;DHT22;24282;48.400;10.808;2022-09-03T15:07:35;19.60;82.80
38514;DHT22;24282;48.400;10.808;2022-09-03T15:10:17;19.50;83.10
38514;DHT22;24282;48.400;10.808;2022-09-03T15:12:51;19.30;83.90
38514;DHT22;24282;48.400;10.808;2022-09-03T15:15:41;19.20;83.90
38514;DHT22;24282;48.400;10.808;2022-09-03T15:18:26;19.10;84.20
38514;DHT22;24282;48.400;10.808;2022-09-03T15:35:09;18.80;85.20
38514;DHT22;24282;48.400;10.808;2022-09-03T15:37:53;18.90;85.30
38514;DHT22;24282;48.400;10.808;2022-09-03T15:43:24;19.20;84.60
38514;DHT22;24282;48.400;10.808;2022-09-03T15:45:58;19.40;83.70
38514;DHT22;24282;48.400;10.808;2022-09-03T15:54:01;19.70;83.10
38514;DHT22;24282;48.400;10.808;2022-09-03T15:56:40;19.80;82.90
38514;DHT22;24282;48.400;10.808;2022-09-03T15:59:28;19.90;82.20
38514;DHT22;24282;48.400;10.808;2022-09-03T16:02:07;19.90;81.00
38514;DHT22;24282;48.400;10.808;2022-09-03T16:15:39;19.60;82.70
38514;DHT22;24282;48.400;10.808;2022-09-03T16:18:22;19.50;82.80
38514;DHT22;24282;48.400;10.808;2022-09-03T16:21:03;19.40;83.10
38514;DHT22;24282;48.400;10.808;2022-09-03T16:24:11;19.40;83.50
38514;DHT22;24282;48.400;10.808;2022-09-03T16:29:29;19.20;83.40
38514;DHT22;24282;48.400;10.808;2022-09-03T16:51:15;18.70;84.60
38514;DHT22;24282;48.400;10.808;2022-09-03T16:54:12;18.70;84.70
38514;DHT22;24282;48.400;10.808;2022-09-03T16:56:53;18.70;85.30
38514;DHT22;24282;48.400;10.808;2022-09-03T17:08:23;18.40;85.70
38514;DHT22;24282;48.400;10.808;2022-09-03T17:21:41;18.30;86.40
38514;DHT22;24282;48.400;10.808;2022-09-03T17:30:26;18.20;86.60
38514;DHT22;24282;48.400;10.808;2022-09-03T17:33:01;18.10;86.70
38514;DHT22;24282;48.400;10.808;2022-09-03T17:48:50;17.90;86.90
38514;DHT22;24282;48.400;10.808;2022-09-03T17:59:31;17.80;86.80
38514;DHT22;24282;48.400;10.808;2022-09-03T18:02:05;17.70;86.80
38514;DHT22;24282;48.400;10.808;2022-09-03T18:16:34;17.60;86.80
38514;DHT22;24282;48.400;10.808;2022-09-03T18:19:07;17.60;87.00
38514;DHT22;24282;48.400;10.808;2022-09-03T18:21:42;17.50;86.90
38514;DHT22;24282;48.400;10.808;2022-09-03T18:24:30;17.50;86.90
38514;DHT22;24282;48.400;10.808;2022-09-03T18:27:21;17.40;86.90
38514;DHT22;24282;48.400;10.808;2022-09-03T18:30:13;17.40;86.90
38514;DHT22;24282;48.400;10.808;2022-09-03T18:32:58;17.40;86.70
38514;DHT22;24282;48.400;10.808;2022-09-03T18:35:44;17.40;87.00
38514;DHT22;24282;48.400;10.808;2022-09-03T18:38:31;17.30;86.90
38514;DHT22;24282;48.400;10.808;2022-09-03T18:50:48;17.20;86.80
38514;DHT22;24282;48.400;10.808;2022-09-03T18:56:51;17.10;86.90
38514;DHT22;24282;48.400;10.808;2022-09-03T19:03:03;17.10;86.80
38514;DHT22;24282;48.400;10.808;2022-09-03T19:15:11;16.90;86.90
38514;DHT22;24282;48.400;10.808;2022-09-03T19:18:34;16.90;86.90
38514;DHT22;24282;48.400;10.808;2022-09-03T19:21:43;16.80;86.80
38514;DHT22;24282;48.400;10.808;2022-09-03T19:24:29;16.80;86.70
38514;DHT22;24282;48.400;10.808;2022-09-03T19:30:43;16.70;86.40
38514;DHT22;24282;48.400;10.808;2022-09-03T19:36:55;16.60;85.90
38514;DHT22;24282;48.400;10.808;2022-09-03T19:46:21;16.50;86.50
38514;DHT22;24282;48.400;10.808;2022-09-03T19:54:47;16.40;86.70
38514;DHT22;24282;48.400;10.808;2022-09-03T19:57:32;16.40;86.80
38514;DHT22;24282;48.400;10.808;2022-09-03T20:00:17;16.40;86.60
38514;DHT22;24282;48.400;10.808;2022-09-03T20:03:02;16.40;86.50
38514;DHT22;24282;48.400;10.808;2022-09-03T20:05:52;16.40;86.40
38514;DHT22;24282;48.400;10.808;2022-09-03T20:08:38;16.30;86.40
38514;DHT22;24282;48.400;10.808;2022-09-03T20:11:23;16.30;86.30
38514;DHT22;24282;48.400;10.808;2022-09-03T20:13:52;16.20;86.30
38514;DHT22;24282;48.400;10.808;2022-09-03T20:19:38;16.10;86.00
38514;DHT22;24282;48.400;10.808;2022-09-03T20:30:36;15.90;86.20
38514;DHT22;24282;48.400;10.808;2022-09-03T20:33:11;15.90;86.20
38514;DHT22;24282;48.400;10.808;2022-09-03T20:35:49;15.90;86.30
38514;DHT22;24282;48.400;10.808;2022-09-03T20:38:24;15.90;86.20
38514;DHT22;24282;48.400;10.808;2022-09-03T20:41:53;15.90;86.20
38514;DHT22;24282;48.400;10.808;2022-09-03T20:47:18;15.90;86.30
38514;DHT22;24282;48.400;10.808;2022-09-03T20:50:01;15.90;86.30
38514;DHT22;24282;48.400;10.808;2022-09-03T20:52:34;15.90;86.30
38514;DHT22;24282;48.400;10.808;2022-09-03T20:55:27;15.80;86.30
38514;DHT22;24282;48.400;10.808;2022-09-03T21:09:41;15.70;86.60
38514;DHT22;24282;48.400;10.808;2022-09-03T21:29:02;15.50;85.70
38514;DHT22;24282;48.400;10.808;2022-09-03T21:31:40;15.50;85.60
38514;DHT22;24282;48.400;10.808;2022-09-03T21:34:24;15.40;85.50
38514;DHT22;24282;48.400;10.808;2022-09-03T21:36:54;15.40;85.50
38514;DHT22;24282;48.400;10.808;2022-09-03T21:39:32;15.40;85.60
38514;DHT22;24282;48.400;10.808;2022-09-03T21:42:14;15.30;85.60
38514;DHT22;24282;48.400;10.808;2022-09-03T21:47:21;15.30;85.70
38514;DHT22;24282;48.400;10.808;2022-09-03T21:50:10;15.30;85.60
38514;DHT22;24282;48.400;10.808;2022-09-03T21:53:06;15.30;85.50
38514;DHT22;24282;48.400;10.808;2022-09-03T21:58:52;15.30;85.30
38514;DHT22;24282;48.400;10.808;2022-09-03T22:01:42;15.20;85.30
38514;DHT22;24282;48.400;10.808;2022-09-03T22:04:13;15.20;85.30
38514;DHT22;24282;48.400;10.808;2022-09-03T22:09:30;15.10;85.80
38514;DHT22;24282;48.400;10.808;2022-09-03T22:12:17;15.10;85.80
38514;DHT22;24282;48.400;10.808;2022-09-03T22:14:49;15.10;85.80
38514;DHT22;24282;48.400;10.808;2022-09-03T22:17:38;15.10;85.70
38514;DHT22;24282;48.400;10.808;2022-09-03T22:20:08;15.10;85.70
38514;DHT22;24282;48.400;10.808;2022-09-03T22:25:22;15.00;85.20
38514;DHT22;24282;48.400;10.808;2022-09-03T22:28:22;15.00;85.30
38514;DHT22;24282;48.400;10.808;2022-09-03T22:33:46;14.90;85.20
38514;DHT22;24282;48.400;10.808;2022-09-03T22:36:23;14.90;85.10
38514;DHT22;24282;48.400;10.808;2022-09-03T22:39:15;14.90;85.20
38514;DHT22;24282;48.400;10.808;2022-09-03T22:53:19;14.70;85.30
38514;DHT22;24282;48.400;10.808;2022-09-03T22:56:09;14.70;85.20
38514;DHT22;24282;48.400;10.808;2022-09-03T22:58:46;14.70;85.30
38514;DHT22;24282;48.400;10.808;2022-09-03T23:01:33;14.60;85.30
38514;DHT22;24282;48.400;10.808;2022-09-03T23:06:56;14.60;85.40
38514;DHT22;24282;48.400;10.808;2022-09-03T23:09:26;14.60;85.30
38514;DHT22;24282;48.400;10.808;2022-09-03T23:11:57;14.50;85.20
38514;DHT22;24282;48.400;10.808;2022-09-03T23:14:35;14.50;85.30
38514;DHT22;24282;48.400;10.808;2022-09-03T23:17:17;14.40;85.30
38514;DHT22;24282;48.400;10.808;2022-09-03T23:19:53;14.50;85.30
38514;DHT22;24282;48.400;10.808;2022-09-03T23:22:22;14.40;85.20
38514;DHT22;24282;48.400;10.808;2022-09-03T23:25:00;14.40;85.10
38514;DHT22;24282;48.400;10.808;2022-09-03T23:27:34;14.40;85.10